createdAt,value
2017-03-11T00:00:11.272Z,0
2017-03-11T00:00:52.163Z,0
2017-03-11T00:01:33.041Z,0
2017-03-11T00:02:13.922Z,0
2017-03-11T00:02:54.805Z,0
2017-03-11T00:03:35.697Z,0
2017-03-11T00:04:16.573Z,0
2017-03-11T00:04:57.439Z,0
2017-03-11T00:05:38.316Z,0
2017-03-11T00:06:19.195Z,0
2017-03-11T00:07:00.084Z,0
2017-03-11T00:07:40.964Z,0
2017-03-11T00:08:21.853Z,0
2017-03-11T00:09:02.734Z,0
2017-03-11T00:09:43.630Z,0
2017-03-11T00:10:24.506Z,0
2017-03-11T00:11:05.382Z,0
2017-03-11T00:11:46.262Z,0
2017-03-11T00:12:27.147Z,0
2017-03-11T00:13:08.051Z,0
2017-03-11T00:13:48.931Z,0
2017-03-11T00:14:29.814Z,0
2017-03-11T00:15:10.691Z,0
2017-03-11T00:15:51.570Z,0
2017-03-11T00:16:32.449Z,0
2017-03-11T00:17:13.337Z,0
2017-03-11T00:17:54.223Z,0
2017-03-11T00:18:35.109Z,0
2017-03-11T00:19:15.966Z,0
2017-03-11T00:19:56.853Z,0
2017-03-11T00:20:37.737Z,0
2017-03-11T00:21:18.611Z,0
2017-03-11T00:21:59.486Z,0
2017-03-11T00:22:40.359Z,0
2017-03-11T00:23:21.236Z,0
2017-03-11T00:24:02.122Z,0
2017-03-11T00:24:43.011Z,0
2017-03-11T00:25:23.886Z,0
2017-03-11T00:26:04.753Z,0
2017-03-11T00:26:45.637Z,0
2017-03-11T00:27:26.518Z,0
2017-03-11T00:28:07.396Z,0
2017-03-11T00:28:48.275Z,0
2017-03-11T00:29:29.155Z,0
2017-03-11T00:30:10.037Z,0
2017-03-11T00:30:50.948Z,0
2017-03-11T00:31:31.842Z,0
2017-03-11T00:32:12.721Z,0
2017-03-11T00:32:53.605Z,0
2017-03-11T00:33:34.485Z,0
2017-03-11T00:34:15.366Z,0
2017-03-11T00:34:56.243Z,0
2017-03-11T00:35:37.126Z,0
2017-03-11T00:36:18.007Z,0
2017-03-11T00:36:58.893Z,0
2017-03-11T00:37:39.778Z,0
2017-03-11T00:38:20.661Z,0
2017-03-11T00:39:01.547Z,0
2017-03-11T00:39:42.427Z,0
2017-03-11T00:40:23.314Z,0
2017-03-11T00:41:04.196Z,0
2017-03-11T00:41:45.085Z,0
2017-03-11T00:42:25.968Z,0
2017-03-11T00:43:06.843Z,0
2017-03-11T00:43:47.726Z,0
2017-03-11T00:44:28.604Z,0
2017-03-11T00:45:09.491Z,0
2017-03-11T00:45:50.381Z,0
2017-03-11T00:46:31.261Z,0
2017-03-11T00:47:12.133Z,0
2017-03-11T00:47:53.012Z,0
2017-03-11T00:48:33.889Z,0
2017-03-11T00:49:14.771Z,0
2017-03-11T00:49:55.654Z,0
2017-03-11T00:50:36.541Z,0
2017-03-11T00:51:17.422Z,0
2017-03-11T00:53:16.240Z,0
2017-03-11T00:53:57.130Z,0
2017-03-11T00:54:38.004Z,0
2017-03-11T00:55:18.883Z,0
2017-03-11T00:55:59.768Z,0
2017-03-11T00:56:40.644Z,0
2017-03-11T00:57:21.530Z,0
2017-03-11T00:58:02.406Z,0
2017-03-11T00:58:43.280Z,0
2017-03-11T00:59:24.161Z,0
2017-03-11T01:00:05.054Z,0
2017-03-11T01:00:45.927Z,0
2017-03-11T01:01:26.804Z,0
2017-03-11T01:02:07.691Z,0
2017-03-11T01:02:48.629Z,0
2017-03-11T01:03:29.498Z,0
2017-03-11T01:04:10.378Z,0
2017-03-11T01:04:51.262Z,0
2017-03-11T01:05:32.133Z,0
2017-03-11T01:06:13.009Z,0
2017-03-11T01:06:53.893Z,0
2017-03-11T01:07:34.789Z,0
2017-03-11T01:08:15.685Z,0
2017-03-11T01:08:56.581Z,0
2017-03-11T01:09:37.505Z,0
2017-03-11T01:10:18.389Z,0
2017-03-11T01:10:59.272Z,0
2017-03-11T01:11:40.154Z,0
2017-03-11T01:12:21.035Z,0
2017-03-11T01:13:01.921Z,0
2017-03-11T01:13:42.806Z,0
2017-03-11T01:14:23.688Z,0
2017-03-11T01:15:04.574Z,0
2017-03-11T01:15:45.459Z,0
2017-03-11T01:16:26.348Z,0
2017-03-11T01:17:07.225Z,0
2017-03-11T01:17:48.109Z,0
2017-03-11T01:18:28.992Z,0
2017-03-11T01:19:09.876Z,0
2017-03-11T01:19:50.753Z,0
2017-03-11T01:20:31.637Z,0
2017-03-11T01:21:12.524Z,0
2017-03-11T01:21:53.404Z,0
2017-03-11T01:22:34.285Z,0
2017-03-11T01:23:15.165Z,0
2017-03-11T01:23:56.037Z,0
2017-03-11T01:24:36.920Z,0
2017-03-11T01:25:17.799Z,0
2017-03-11T01:25:58.681Z,0
2017-03-11T01:26:39.559Z,0
2017-03-11T01:27:20.439Z,0
2017-03-11T01:28:01.325Z,0
2017-03-11T01:28:42.211Z,0
2017-03-11T01:29:23.092Z,0
2017-03-11T01:30:03.970Z,0
2017-03-11T01:30:44.852Z,0
2017-03-11T01:31:25.735Z,0
2017-03-11T01:32:06.615Z,0
2017-03-11T01:32:47.515Z,0
2017-03-11T01:33:28.412Z,0
2017-03-11T01:34:09.285Z,0
2017-03-11T01:34:50.160Z,0
2017-03-11T01:35:31.052Z,0
2017-03-11T01:36:11.946Z,0
2017-03-11T01:36:52.819Z,0
2017-03-11T01:37:33.703Z,0
2017-03-11T01:38:14.591Z,0
2017-03-11T01:38:55.475Z,0
2017-03-11T01:39:36.355Z,0
2017-03-11T01:40:17.235Z,0
2017-03-11T01:40:58.119Z,0
2017-03-11T01:41:39.002Z,0
2017-03-11T01:42:19.877Z,0
2017-03-11T01:43:00.760Z,0
2017-03-11T01:43:41.639Z,0
2017-03-11T01:44:22.528Z,0
2017-03-11T01:45:03.404Z,0
2017-03-11T01:45:44.279Z,0
2017-03-11T01:46:25.149Z,0
2017-03-11T01:47:06.031Z,0
2017-03-11T01:47:46.914Z,0
2017-03-11T01:48:27.790Z,0
2017-03-11T01:49:08.667Z,0
2017-03-11T01:49:49.549Z,0
2017-03-11T01:50:30.434Z,0
2017-03-11T01:51:11.314Z,0
2017-03-11T01:51:52.197Z,0
2017-03-11T01:52:33.078Z,0
2017-03-11T01:53:13.965Z,0
2017-03-11T01:53:54.878Z,0
2017-03-11T01:54:35.733Z,0
2017-03-11T01:55:16.618Z,0
2017-03-11T01:55:57.499Z,0
2017-03-11T01:56:38.382Z,0
2017-03-11T01:57:19.263Z,0
2017-03-11T01:58:00.148Z,0
2017-03-11T01:58:41.026Z,0
2017-03-11T01:59:21.912Z,0
2017-03-11T02:00:02.793Z,0
2017-03-11T02:00:43.676Z,0
2017-03-11T02:01:24.565Z,0
2017-03-11T02:02:05.448Z,0
2017-03-11T02:02:46.332Z,0
2017-03-11T02:03:27.216Z,0
2017-03-11T02:04:08.101Z,0
2017-03-11T02:04:48.997Z,0
2017-03-11T02:05:29.871Z,0
2017-03-11T02:06:10.754Z,0
2017-03-11T02:06:51.639Z,0
2017-03-11T02:07:32.528Z,0
2017-03-11T02:08:13.399Z,0
2017-03-11T02:08:54.281Z,0
2017-03-11T02:09:35.160Z,0
2017-03-11T02:10:16.048Z,0
2017-03-11T02:10:56.927Z,0
2017-03-11T02:11:37.813Z,0
2017-03-11T02:12:18.693Z,0
2017-03-11T02:12:59.583Z,0
2017-03-11T02:13:40.463Z,0
2017-03-11T02:14:21.346Z,0
2017-03-11T02:15:02.231Z,0
2017-03-11T02:15:43.117Z,0
2017-03-11T02:16:24.003Z,0
2017-03-11T02:17:04.885Z,0
2017-03-11T02:17:45.766Z,0
2017-03-11T02:18:26.654Z,0
2017-03-11T02:19:07.531Z,0
2017-03-11T02:19:48.437Z,0
2017-03-11T02:20:29.319Z,0
2017-03-11T02:21:10.253Z,0
2017-03-11T02:21:51.139Z,0
2017-03-11T02:22:32.020Z,0
2017-03-11T02:23:12.891Z,0
2017-03-11T02:23:53.775Z,0
2017-03-11T02:24:34.658Z,0
2017-03-11T02:25:15.534Z,0
2017-03-11T02:25:56.416Z,0
2017-03-11T02:26:37.295Z,0
2017-03-11T02:27:18.176Z,0
2017-03-11T02:27:59.061Z,0
2017-03-11T02:28:39.942Z,0
2017-03-11T02:29:20.823Z,0
2017-03-11T02:30:01.710Z,0
2017-03-11T02:30:42.589Z,0
2017-03-11T02:31:23.477Z,0
2017-03-11T02:32:04.355Z,0
2017-03-11T02:32:45.250Z,0
2017-03-11T02:33:26.133Z,0
2017-03-11T02:34:07.015Z,0
2017-03-11T02:34:47.891Z,0
2017-03-11T02:35:28.765Z,0
2017-03-11T02:36:09.641Z,0
2017-03-11T02:36:50.528Z,0
2017-03-11T02:37:31.405Z,0
2017-03-11T02:38:12.290Z,0
2017-03-11T02:38:53.171Z,0
2017-03-11T02:39:34.058Z,0
2017-03-11T02:40:14.939Z,0
2017-03-11T02:40:55.823Z,0
2017-03-11T02:41:36.734Z,0
2017-03-11T02:42:17.614Z,0
2017-03-11T02:42:58.493Z,0
2017-03-11T02:43:39.369Z,0
2017-03-11T02:44:20.249Z,0
2017-03-11T02:45:01.137Z,0
2017-03-11T02:45:42.012Z,0
2017-03-11T02:46:22.897Z,0
2017-03-11T02:47:03.781Z,0
2017-03-11T02:47:44.663Z,0
2017-03-11T02:48:25.543Z,0
2017-03-11T02:49:06.422Z,0
2017-03-11T02:49:47.335Z,0
2017-03-11T02:50:28.214Z,0
2017-03-11T02:51:09.092Z,0
2017-03-11T02:51:49.978Z,0
2017-03-11T02:52:30.893Z,0
2017-03-11T02:53:11.743Z,0
2017-03-11T02:53:52.622Z,0
2017-03-11T02:54:33.496Z,0
2017-03-11T02:55:14.376Z,0
2017-03-11T02:55:55.270Z,0
2017-03-11T02:56:36.144Z,0
2017-03-11T02:57:17.025Z,0
2017-03-11T02:57:57.906Z,0
2017-03-11T02:58:38.794Z,0
2017-03-11T02:59:19.672Z,0
2017-03-11T03:00:00.557Z,0
2017-03-11T03:00:41.439Z,0
2017-03-11T03:01:22.346Z,0
2017-03-11T03:02:03.220Z,0
2017-03-11T03:02:44.095Z,0
2017-03-11T03:03:24.976Z,0
2017-03-11T03:04:05.855Z,0
2017-03-11T03:04:46.734Z,0
2017-03-11T03:05:27.649Z,0
2017-03-11T03:06:08.501Z,0
2017-03-11T03:06:49.394Z,0
2017-03-11T03:07:30.279Z,0
2017-03-11T03:08:11.159Z,0
2017-03-11T03:08:52.040Z,0
2017-03-11T03:09:32.926Z,0
2017-03-11T03:10:13.809Z,0
2017-03-11T03:10:54.693Z,0
2017-03-11T03:11:35.577Z,0
2017-03-11T03:12:16.456Z,0
2017-03-11T03:12:57.341Z,0
2017-03-11T03:13:38.222Z,0
2017-03-11T03:14:19.103Z,0
2017-03-11T03:14:59.990Z,0
2017-03-11T03:15:40.872Z,0
2017-03-11T03:16:21.759Z,0
2017-03-11T03:17:02.637Z,0
2017-03-11T03:17:43.520Z,0
2017-03-11T03:18:24.404Z,0
2017-03-11T03:19:05.281Z,0
2017-03-11T03:19:46.159Z,0
2017-03-11T03:20:27.049Z,0
2017-03-11T03:21:07.930Z,0
2017-03-11T03:21:48.808Z,0
2017-03-11T03:22:29.687Z,0
2017-03-11T03:23:10.567Z,0
2017-03-11T03:23:51.448Z,0
2017-03-11T03:24:32.323Z,0
2017-03-11T03:25:13.205Z,0
2017-03-11T03:25:54.083Z,0
2017-03-11T03:26:34.965Z,0
2017-03-11T03:27:15.843Z,0
2017-03-11T03:27:56.717Z,0
2017-03-11T03:28:37.599Z,0
2017-03-11T03:29:18.476Z,0
2017-03-11T03:29:59.356Z,0
2017-03-11T03:30:40.248Z,0
2017-03-11T03:31:21.118Z,0
2017-03-11T03:32:01.997Z,0
2017-03-11T03:32:42.876Z,0
2017-03-11T03:33:23.755Z,0
2017-03-11T03:34:04.637Z,0
2017-03-11T03:34:45.516Z,0
2017-03-11T03:35:26.393Z,0
2017-03-11T03:36:07.273Z,0
2017-03-11T03:36:48.159Z,0
2017-03-11T03:38:46.909Z,0
2017-03-11T03:39:27.804Z,0
2017-03-11T03:40:08.679Z,0
2017-03-11T03:40:49.569Z,0
2017-03-11T03:41:30.451Z,0
2017-03-11T03:42:11.336Z,0
2017-03-11T03:42:52.218Z,0
2017-03-11T03:43:33.102Z,0
2017-03-11T03:44:14.004Z,0
2017-03-11T03:44:54.883Z,0
2017-03-11T03:45:35.767Z,0
2017-03-11T03:46:16.651Z,0
2017-03-11T03:46:57.534Z,0
2017-03-11T03:47:38.414Z,0
2017-03-11T03:48:19.297Z,0
2017-03-11T03:49:00.178Z,0
2017-03-11T03:49:41.056Z,0
2017-03-11T03:50:21.950Z,0
2017-03-11T03:51:02.827Z,0
2017-03-11T03:51:43.707Z,0
2017-03-11T03:52:24.588Z,0
2017-03-11T03:53:05.471Z,0
2017-03-11T03:53:46.346Z,0
2017-03-11T03:54:27.224Z,0
2017-03-11T03:55:08.108Z,0
2017-03-11T03:55:48.973Z,0
2017-03-11T03:56:29.851Z,0
2017-03-11T03:57:10.735Z,0
2017-03-11T03:57:51.620Z,0
2017-03-11T03:58:32.501Z,0
2017-03-11T03:59:13.387Z,0
2017-03-11T03:59:54.268Z,0
2017-03-11T04:00:35.151Z,0
2017-03-11T04:01:16.026Z,0
2017-03-11T04:01:56.905Z,0
2017-03-11T04:02:37.785Z,0
2017-03-11T04:03:18.667Z,0
2017-03-11T04:03:59.544Z,0
2017-03-11T04:04:40.423Z,0
2017-03-11T04:05:21.307Z,0
2017-03-11T04:06:02.188Z,0
2017-03-11T04:06:43.063Z,0
2017-03-11T04:07:23.939Z,0
2017-03-11T04:08:04.819Z,0
2017-03-11T04:08:45.705Z,0
2017-03-11T04:09:26.584Z,0
2017-03-11T04:10:07.461Z,0
2017-03-11T04:10:48.341Z,0
2017-03-11T04:11:29.217Z,0
2017-03-11T04:12:10.098Z,0
2017-03-11T04:12:50.976Z,0
2017-03-11T04:13:31.851Z,0
2017-03-11T04:14:12.721Z,0
2017-03-11T04:14:53.600Z,0
2017-03-11T04:15:34.481Z,0
2017-03-11T04:16:15.361Z,0
2017-03-11T04:16:56.241Z,0
2017-03-11T04:17:37.120Z,0
2017-03-11T04:18:18.001Z,0
2017-03-11T04:18:58.882Z,0
2017-03-11T04:19:39.762Z,0
2017-03-11T04:20:20.640Z,0
2017-03-11T04:21:01.521Z,0
2017-03-11T04:21:42.406Z,0
2017-03-11T04:22:23.283Z,0
2017-03-11T04:23:04.166Z,0
2017-03-11T04:23:45.042Z,0
2017-03-11T04:24:25.921Z,0
2017-03-11T04:25:06.806Z,0
2017-03-11T04:25:47.689Z,0
2017-03-11T04:26:28.566Z,0
2017-03-11T04:27:09.446Z,0
2017-03-11T04:27:50.335Z,0
2017-03-11T04:28:31.212Z,0
2017-03-11T04:29:12.120Z,0
2017-03-11T04:29:52.978Z,0
2017-03-11T04:30:33.863Z,0
2017-03-11T04:31:14.743Z,0
2017-03-11T04:31:55.619Z,0
2017-03-11T04:32:36.494Z,0
2017-03-11T04:33:17.376Z,0
2017-03-11T04:33:58.261Z,0
2017-03-11T04:34:39.140Z,0
2017-03-11T04:35:20.022Z,0
2017-03-11T04:36:00.905Z,0
2017-03-11T04:36:41.788Z,0
2017-03-11T04:37:22.665Z,0
2017-03-11T04:38:03.545Z,0
2017-03-11T04:38:44.422Z,0
2017-03-11T04:39:25.303Z,0
2017-03-11T04:40:06.203Z,0
2017-03-11T04:41:44.591Z,0
2017-03-11T04:42:25.470Z,0
2017-03-11T04:43:06.354Z,0
2017-03-11T04:43:47.241Z,0
2017-03-11T04:44:28.120Z,0
2017-03-11T04:45:09.001Z,0
2017-03-11T04:45:49.880Z,0
2017-03-11T04:46:30.778Z,0
2017-03-11T04:47:11.645Z,0
2017-03-11T04:47:52.522Z,0
2017-03-11T04:48:33.399Z,0
2017-03-11T04:49:14.277Z,0
2017-03-11T04:49:55.161Z,0
2017-03-11T04:50:36.044Z,0
2017-03-11T04:51:16.923Z,0
2017-03-11T04:51:57.805Z,0
2017-03-11T04:52:38.675Z,0
2017-03-11T04:53:19.555Z,0
2017-03-11T04:54:00.436Z,0
2017-03-11T04:54:41.318Z,0
2017-03-11T04:55:22.197Z,0
2017-03-11T04:56:03.099Z,0
2017-03-11T04:56:43.963Z,0
2017-03-11T04:57:24.845Z,4
2017-03-11T04:58:05.713Z,4
2017-03-11T04:58:46.596Z,4
2017-03-11T04:59:27.477Z,4
2017-03-11T05:00:08.364Z,4
2017-03-11T05:00:49.247Z,0
2017-03-11T05:01:30.125Z,0
2017-03-11T05:02:11.012Z,0
2017-03-11T05:02:51.891Z,4
2017-03-11T05:03:32.768Z,4
2017-03-11T05:04:13.642Z,4
2017-03-11T05:04:54.516Z,4
2017-03-11T05:05:35.404Z,4
2017-03-11T05:06:16.284Z,4
2017-03-11T05:06:57.165Z,8
2017-03-11T05:07:38.055Z,4
2017-03-11T05:08:18.938Z,8
2017-03-11T05:08:59.820Z,8
2017-03-11T05:09:40.696Z,12
2017-03-11T05:10:21.599Z,12
2017-03-11T05:11:02.478Z,8
2017-03-11T05:11:43.360Z,16
2017-03-11T05:12:24.239Z,16
2017-03-11T05:13:05.119Z,16
2017-03-11T05:13:46.003Z,16
2017-03-11T05:14:26.890Z,20
2017-03-11T05:15:07.764Z,20
2017-03-11T05:15:48.649Z,24
2017-03-11T05:16:29.530Z,24
2017-03-11T05:17:10.417Z,32
2017-03-11T05:17:51.292Z,32
2017-03-11T05:18:32.175Z,32
2017-03-11T05:19:13.051Z,40
2017-03-11T05:19:53.924Z,44
2017-03-11T05:20:34.803Z,48
2017-03-11T05:21:15.684Z,48
2017-03-11T05:21:56.561Z,56
2017-03-11T05:22:37.449Z,60
2017-03-11T05:23:18.341Z,64
2017-03-11T05:23:59.224Z,72
2017-03-11T05:24:40.099Z,76
2017-03-11T05:25:20.974Z,84
2017-03-11T05:26:01.851Z,88
2017-03-11T05:26:42.731Z,92
2017-03-11T05:27:23.612Z,96
2017-03-11T05:28:04.489Z,100
2017-03-11T05:28:45.368Z,104
2017-03-11T05:29:26.249Z,108
2017-03-11T05:30:07.121Z,108
2017-03-11T05:30:48.000Z,112
2017-03-11T05:31:28.868Z,116
2017-03-11T05:32:09.763Z,120
2017-03-11T05:32:50.643Z,124
2017-03-11T05:33:31.531Z,132
2017-03-11T05:34:12.431Z,136
2017-03-11T05:34:53.281Z,140
2017-03-11T05:35:34.165Z,140
2017-03-11T05:36:15.055Z,140
2017-03-11T05:36:55.941Z,144
2017-03-11T05:37:36.831Z,148
2017-03-11T05:38:17.710Z,152
2017-03-11T05:38:58.590Z,160
2017-03-11T05:39:39.473Z,164
2017-03-11T05:40:20.350Z,168
2017-03-11T05:41:01.233Z,176
2017-03-11T05:41:42.123Z,184
2017-03-11T05:42:23.003Z,196
2017-03-11T05:43:03.905Z,208
2017-03-11T05:43:44.797Z,220
2017-03-11T05:44:25.675Z,228
2017-03-11T05:45:06.551Z,236
2017-03-11T05:45:47.438Z,248
2017-03-11T05:46:28.340Z,256
2017-03-11T05:47:09.220Z,264
2017-03-11T05:47:50.092Z,272
2017-03-11T05:48:30.977Z,276
2017-03-11T05:49:11.857Z,284
2017-03-11T05:49:52.740Z,288
2017-03-11T05:50:33.621Z,296
2017-03-11T05:51:14.498Z,304
2017-03-11T05:51:55.378Z,312
2017-03-11T05:52:36.262Z,320
2017-03-11T05:53:17.135Z,328
2017-03-11T05:53:58.013Z,340
2017-03-11T05:54:38.909Z,348
2017-03-11T05:55:19.764Z,356
2017-03-11T05:56:00.646Z,372
2017-03-11T05:56:41.521Z,392
2017-03-11T05:57:22.401Z,412
2017-03-11T05:58:03.275Z,440
2017-03-11T05:58:44.154Z,468
2017-03-11T05:59:25.039Z,492
2017-03-11T06:00:05.914Z,516
2017-03-11T06:00:46.797Z,536
2017-03-11T06:01:27.677Z,552
2017-03-11T06:02:08.563Z,568
2017-03-11T06:02:49.448Z,588
2017-03-11T06:03:30.325Z,608
2017-03-11T06:04:11.215Z,624
2017-03-11T06:04:52.094Z,636
2017-03-11T06:05:32.971Z,648
2017-03-11T06:06:13.842Z,664
2017-03-11T06:06:54.718Z,668
2017-03-11T06:07:35.609Z,676
2017-03-11T06:08:16.490Z,688
2017-03-11T06:08:57.368Z,696
2017-03-11T06:09:38.250Z,708
2017-03-11T06:10:19.138Z,724
2017-03-11T06:11:00.019Z,748
2017-03-11T06:11:40.900Z,768
2017-03-11T06:12:21.785Z,796
2017-03-11T06:13:02.662Z,828
2017-03-11T06:13:43.531Z,864
2017-03-11T06:14:24.419Z,888
2017-03-11T06:15:05.291Z,904
2017-03-11T06:15:46.162Z,920
2017-03-11T06:16:27.052Z,924
2017-03-11T06:17:07.927Z,932
2017-03-11T06:17:48.812Z,944
2017-03-11T06:18:29.692Z,960
2017-03-11T06:19:10.567Z,984
2017-03-11T06:19:51.449Z,1008
2017-03-11T06:20:32.342Z,1044
2017-03-11T06:21:13.220Z,1068
2017-03-11T06:21:54.104Z,1088
2017-03-11T06:22:35.817Z,1112
2017-03-11T06:23:15.935Z,1136
2017-03-11T06:23:56.832Z,1160
2017-03-11T06:24:37.728Z,1172
2017-03-11T06:25:18.637Z,1180
2017-03-11T06:25:59.525Z,1184
2017-03-11T06:26:40.408Z,1196
2017-03-11T06:27:21.280Z,1208
2017-03-11T06:28:02.160Z,1216
2017-03-11T06:28:43.038Z,1236
2017-03-11T06:29:23.924Z,1260
2017-03-11T06:30:04.798Z,1288
2017-03-11T06:30:45.677Z,1320
2017-03-11T06:31:26.557Z,1348
2017-03-11T06:32:07.436Z,1384
2017-03-11T06:32:48.319Z,1416
2017-03-11T06:33:29.199Z,1464
2017-03-11T06:34:10.079Z,1516
2017-03-11T06:34:50.964Z,1572
2017-03-11T06:35:31.838Z,1632
2017-03-11T06:36:12.710Z,1680
2017-03-11T06:36:53.591Z,1720
2017-03-11T06:37:34.476Z,1744
2017-03-11T06:38:15.359Z,1768
2017-03-11T06:38:56.239Z,1788
2017-03-11T06:39:37.119Z,1804
2017-03-11T06:40:18.000Z,1820
2017-03-11T06:40:58.887Z,1840
2017-03-11T06:41:39.765Z,1868
2017-03-11T06:42:20.632Z,1884
2017-03-11T06:43:01.519Z,1896
2017-03-11T06:45:20.436Z,1968
2017-03-11T06:46:01.318Z,1980
2017-03-11T06:46:42.195Z,2004
2017-03-11T06:47:23.079Z,2024
2017-03-11T06:48:03.972Z,2060
2017-03-11T06:48:44.844Z,2092
2017-03-11T06:49:25.716Z,2120
2017-03-11T06:50:06.603Z,2144
2017-03-11T06:50:47.489Z,2188
2017-03-11T06:51:28.369Z,2200
2017-03-11T06:52:09.247Z,2220
2017-03-11T06:52:50.135Z,2220
2017-03-11T06:53:31.022Z,2220
2017-03-11T06:54:11.898Z,2248
2017-03-11T06:54:52.768Z,2284
2017-03-11T06:55:33.643Z,2316
2017-03-11T06:56:14.523Z,2332
2017-03-11T06:56:55.414Z,2352
2017-03-11T06:57:36.284Z,2388
2017-03-11T06:58:17.172Z,2452
2017-03-11T06:58:58.072Z,2532
2017-03-11T06:59:38.951Z,2632
2017-03-11T07:00:19.824Z,2756
2017-03-11T07:01:00.696Z,2884
2017-03-11T07:01:41.573Z,2996
2017-03-11T07:02:22.451Z,3084
2017-03-11T07:03:03.334Z,3156
2017-03-11T07:03:44.215Z,3220
2017-03-11T07:04:25.093Z,3276
2017-03-11T07:05:05.977Z,3320
2017-03-11T07:05:46.878Z,3352
2017-03-11T07:06:27.734Z,3396
2017-03-11T07:07:08.613Z,3432
2017-03-11T07:07:49.492Z,3480
2017-03-11T07:08:30.377Z,3532
2017-03-11T07:09:11.259Z,3560
2017-03-11T07:09:52.136Z,3608
2017-03-11T07:10:33.020Z,3640
2017-03-11T07:11:13.908Z,3684
2017-03-11T07:11:54.785Z,3740
2017-03-11T07:12:35.668Z,3800
2017-03-11T07:13:16.549Z,3892
2017-03-11T07:13:57.430Z,3992
2017-03-11T07:14:38.319Z,4076
2017-03-11T07:15:19.202Z,4176
2017-03-11T07:16:00.074Z,4256
2017-03-11T07:16:40.953Z,4324
2017-03-11T07:17:21.832Z,4376
2017-03-11T07:18:02.745Z,4420
2017-03-11T07:18:43.621Z,4504
2017-03-11T07:19:24.507Z,4576
2017-03-11T07:20:05.388Z,4644
2017-03-11T07:20:46.266Z,4732
2017-03-11T07:21:27.147Z,4820
2017-03-11T07:22:08.025Z,4876
2017-03-11T07:22:48.908Z,4948
2017-03-11T07:23:29.790Z,5024
2017-03-11T07:24:10.666Z,5100
2017-03-11T07:24:51.546Z,5184
2017-03-11T07:25:32.434Z,5260
2017-03-11T07:26:13.315Z,5316
2017-03-11T07:26:54.194Z,5352
2017-03-11T07:27:35.075Z,5420
2017-03-11T07:28:15.966Z,5468
2017-03-11T07:28:56.850Z,5512
2017-03-11T07:29:37.729Z,5524
2017-03-11T07:30:18.608Z,5512
2017-03-11T07:30:59.495Z,5480
2017-03-11T07:31:40.378Z,5432
2017-03-11T07:32:21.259Z,5420
2017-03-11T07:33:02.145Z,5344
2017-03-11T07:33:43.033Z,5276
2017-03-11T07:34:23.917Z,5236
2017-03-11T07:35:04.812Z,5208
2017-03-11T07:35:45.689Z,5196
2017-03-11T07:36:26.562Z,5228
2017-03-11T07:37:07.432Z,5264
2017-03-11T07:37:48.311Z,5296
2017-03-11T07:38:29.189Z,5320
2017-03-11T07:39:10.097Z,5332
2017-03-11T07:39:51.000Z,5320
2017-03-11T07:40:31.894Z,5316
2017-03-11T07:41:12.746Z,5276
2017-03-11T07:41:53.621Z,5232
2017-03-11T07:42:34.493Z,5172
2017-03-11T07:43:15.361Z,5072
2017-03-11T07:43:56.221Z,4992
2017-03-11T07:44:37.089Z,4932
2017-03-11T07:45:17.950Z,4908
2017-03-11T07:45:58.823Z,4920
2017-03-11T07:46:39.721Z,4952
2017-03-11T07:47:20.584Z,4992
2017-03-11T07:48:01.448Z,5060
2017-03-11T07:48:42.311Z,5152
2017-03-11T07:49:23.184Z,5256
2017-03-11T07:50:04.056Z,5392
2017-03-11T07:50:44.929Z,5512
2017-03-11T07:51:25.809Z,5640
2017-03-11T07:52:06.682Z,5760
2017-03-11T07:52:47.564Z,5860
2017-03-11T07:53:28.438Z,5960
2017-03-11T07:54:09.346Z,6064
2017-03-11T07:54:50.218Z,6124
2017-03-11T07:55:31.098Z,6208
2017-03-11T07:56:11.981Z,6208
2017-03-11T07:56:52.861Z,6164
2017-03-11T07:57:33.729Z,6124
2017-03-11T07:58:14.592Z,6028
2017-03-11T07:58:55.509Z,5924
2017-03-11T07:59:36.383Z,5864
2017-03-11T08:00:17.245Z,5840
2017-03-11T08:00:58.098Z,5884
2017-03-11T08:01:38.978Z,6004
2017-03-11T08:02:19.872Z,6120
2017-03-11T08:03:00.757Z,6248
2017-03-11T08:03:41.632Z,6376
2017-03-11T08:04:22.512Z,6504
2017-03-11T08:05:03.422Z,6656
2017-03-11T08:05:44.305Z,6784
2017-03-11T08:06:25.187Z,6916
2017-03-11T08:07:06.062Z,7056
2017-03-11T08:07:46.971Z,7152
2017-03-11T08:08:27.852Z,7172
2017-03-11T08:09:08.727Z,7172
2017-03-11T08:09:49.612Z,7160
2017-03-11T08:10:30.492Z,7168
2017-03-11T08:11:11.377Z,7224
2017-03-11T08:11:52.258Z,7280
2017-03-11T08:12:33.137Z,7360
2017-03-11T08:13:14.017Z,7472
2017-03-11T08:13:54.898Z,7616
2017-03-11T08:14:35.778Z,7804
2017-03-11T08:15:16.657Z,7960
2017-03-11T08:15:57.535Z,8140
2017-03-11T08:16:38.420Z,8348
2017-03-11T08:17:19.303Z,8612
2017-03-11T08:18:00.180Z,8852
2017-03-11T08:18:41.061Z,9020
2017-03-11T08:19:21.949Z,9100
2017-03-11T08:20:02.833Z,9112
2017-03-11T08:20:43.713Z,9120
2017-03-11T08:21:24.596Z,9104
2017-03-11T08:22:05.475Z,9152
2017-03-11T08:22:46.361Z,9192
2017-03-11T08:23:27.236Z,9328
2017-03-11T08:24:08.124Z,9380
2017-03-11T08:24:49.002Z,9520
2017-03-11T08:25:29.886Z,9652
2017-03-11T08:26:10.766Z,9852
2017-03-11T08:26:51.640Z,9852
2017-03-11T08:27:32.518Z,9976
2017-03-11T08:28:13.401Z,10628
2017-03-11T08:28:54.289Z,10124
2017-03-11T08:29:35.171Z,10144
2017-03-11T08:30:16.048Z,10176
2017-03-11T08:30:56.930Z,10408
2017-03-11T08:31:37.810Z,10648
2017-03-11T08:32:18.688Z,10724
2017-03-11T08:32:59.572Z,10848
2017-03-11T08:33:40.454Z,10844
2017-03-11T08:34:21.337Z,10976
2017-03-11T08:35:02.213Z,11868
2017-03-11T08:35:43.091Z,11156
2017-03-11T08:36:23.975Z,10884
2017-03-11T08:37:04.856Z,12504
2017-03-11T08:37:45.746Z,10948
2017-03-11T08:38:26.622Z,10788
2017-03-11T08:39:07.509Z,11052
2017-03-11T08:39:48.393Z,10688
2017-03-11T08:40:29.279Z,10672
2017-03-11T08:41:10.160Z,10768
2017-03-11T08:41:51.043Z,10852
2017-03-11T08:42:31.927Z,10804
2017-03-11T08:43:12.838Z,10816
2017-03-11T08:43:53.689Z,11116
2017-03-11T08:44:34.569Z,11548
2017-03-11T08:45:15.463Z,11220
2017-03-11T08:45:56.343Z,11500
2017-03-11T08:46:37.222Z,11428
2017-03-11T08:47:18.108Z,11996
2017-03-11T08:47:58.985Z,12304
2017-03-11T08:48:39.876Z,12336
2017-03-11T08:49:20.749Z,12556
2017-03-11T08:50:01.636Z,12824
2017-03-11T08:50:42.517Z,13000
2017-03-11T08:51:23.410Z,13164
2017-03-11T08:52:04.285Z,12916
2017-03-11T08:52:45.173Z,13288
2017-03-11T08:53:26.057Z,13812
2017-03-11T08:54:06.929Z,13764
2017-03-11T08:54:47.812Z,14204
2017-03-11T08:55:28.706Z,14680
2017-03-11T08:56:09.587Z,14732
2017-03-11T08:56:50.485Z,14380
2017-03-11T08:57:31.368Z,16768
2017-03-11T08:58:12.254Z,14740
2017-03-11T08:58:53.154Z,15176
2017-03-11T08:59:34.014Z,19296
2017-03-11T09:00:14.905Z,18784
2017-03-11T09:00:55.788Z,20576
2017-03-11T09:01:36.674Z,16864
2017-03-11T09:02:17.570Z,19296
2017-03-11T09:02:58.450Z,18464
2017-03-11T09:03:39.331Z,15344
2017-03-11T09:04:20.211Z,14600
2017-03-11T09:05:01.091Z,14912
2017-03-11T09:05:41.965Z,13624
2017-03-11T09:06:22.860Z,13012
2017-03-11T09:07:03.744Z,13240
2017-03-11T09:07:44.661Z,12060
2017-03-11T09:08:25.520Z,11624
2017-03-11T09:09:06.385Z,11136
2017-03-11T09:09:47.273Z,10876
2017-03-11T09:10:28.154Z,10796
2017-03-11T09:11:09.040Z,10804
2017-03-11T09:11:49.924Z,10744
2017-03-11T09:12:30.808Z,11004
2017-03-11T09:13:11.684Z,11048
2017-03-11T09:13:52.553Z,10764
2017-03-11T09:14:33.438Z,10580
2017-03-11T09:15:14.318Z,10368
2017-03-11T09:15:55.199Z,10468
2017-03-11T09:16:36.080Z,10224
2017-03-11T09:17:16.967Z,10160
2017-03-11T09:17:57.859Z,10316
2017-03-11T09:18:38.755Z,10008
2017-03-11T09:19:19.629Z,9852
2017-03-11T09:20:00.517Z,9244
2017-03-11T09:20:41.404Z,8856
2017-03-11T09:21:22.302Z,8684
2017-03-11T09:22:03.169Z,8540
2017-03-11T09:22:44.052Z,8664
2017-03-11T09:23:24.938Z,9040
2017-03-11T09:24:05.822Z,9184
2017-03-11T09:24:46.705Z,9364
2017-03-11T09:25:27.588Z,9656
2017-03-11T09:26:08.480Z,10100
2017-03-11T09:26:49.351Z,10128
2017-03-11T09:27:30.235Z,10128
2017-03-11T09:28:11.123Z,9732
2017-03-11T09:28:52.007Z,9804
2017-03-11T09:29:32.880Z,9544
2017-03-11T09:30:13.756Z,9332
2017-03-11T09:30:54.646Z,9212
2017-03-11T09:31:35.527Z,9140
2017-03-11T09:32:16.407Z,9040
2017-03-11T09:32:57.295Z,9084
2017-03-11T09:33:38.184Z,8912
2017-03-11T09:34:19.054Z,8696
2017-03-11T09:34:59.937Z,8556
2017-03-11T09:35:40.815Z,8480
2017-03-11T09:36:21.699Z,8508
2017-03-11T09:38:36.595Z,8328
2017-03-11T09:39:17.471Z,8244
2017-03-11T09:39:58.346Z,8176
2017-03-11T09:40:39.225Z,7904
2017-03-11T09:41:20.103Z,7816
2017-03-11T09:42:00.984Z,7764
2017-03-11T09:42:41.864Z,7740